Time;durP1;ratioP1;P1;durP2;ratioP2;P2;SDS_P1;SDS_P2;PMS_P1;PMS_P2;Temp;Humidity;BMP_temperature;BMP_pressure;BME280_temperature;BME280_humidity;BME280_pressure;Samples;Min_cycle;Max_cycle;Signal;HPM_P1;HPM_P2
2022/01/30 00:01:19;;;;;;;39.20;6.97;;;7.00;99.90;;;;;;5047505;28;20049;-71
2022/01/30 00:03:44;;;;;;;44.47;6.60;;;7.00;99.90;;;;;;5011593;28;20025;-72
2022/01/30 00:06:10;;;;;;;33.67;7.18;;;7.00;99.90;;;;;;5045800;28;20467;-72
2022/01/30 00:08:36;;;;;;;49.50;6.75;;;7.00;99.90;;;;;;5028521;28;20486;-73
2022/01/30 00:11:10;;;;;;;30.17;6.45;;;7.00;99.90;;;;;;5046979;28;20056;-72
2022/01/30 00:13:37;;;;;;;31.08;5.60;;;7.00;99.90;;;;;;5049791;28;20107;-72
2022/01/30 00:16:06;;;;;;;30.45;5.13;;;6.90;99.90;;;;;;5050987;28;20043;-72
2022/01/30 00:23:35;;;;;;;36.33;5.90;;;6.70;99.90;;;;;;5047531;28;20051;-71
2022/01/30 00:26:03;;;;;;;32.35;6.13;;;6.70;99.90;;;;;;5033119;28;20085;-73
2022/01/30 00:28:32;;;;;;;49.53;7.80;;;6.70;99.90;;;;;;5055310;28;20074;-72
2022/01/30 00:30:58;;;;;;;37.03;6.60;;;6.60;99.90;;;;;;5050785;28;20029;-71
2022/01/30 00:33:24;;;;;;;40.20;6.25;;;6.50;99.90;;;;;;5049181;28;20387;-73
2022/01/30 00:35:50;;;;;;;41.80;7.63;;;6.50;99.90;;;;;;5050067;28;20032;-73
2022/01/30 00:38:16;;;;;;;234.18;83.35;;;6.50;99.90;;;;;;5049451;28;20029;-73
2022/01/30 00:40:43;;;;;;;376.48;158.73;;;6.50;99.90;;;;;;5047841;28;20044;-72
2022/01/30 00:43:09;;;;;;;55.83;13.10;;;6.60;99.90;;;;;;5046294;28;20170;-72
2022/01/30 00:45:36;;;;;;;44.90;6.70;;;6.60;99.90;;;;;;5053852;28;20521;-72
2022/01/30 00:48:02;;;;;;;44.17;7.68;;;6.60;99.90;;;;;;5048784;28;20368;-72
2022/01/30 00:50:28;;;;;;;35.10;6.18;;;6.50;99.90;;;;;;5047208;28;20479;-72
2022/01/30 00:52:55;;;;;;;46.08;6.28;;;6.40;99.90;;;;;;5048937;28;20033;-73
2022/01/30 00:55:25;;;;;;;42.20;7.15;;;6.30;99.90;;;;;;5048522;28;20078;-71
2022/01/30 00:57:51;;;;;;;40.72;7.10;;;6.20;99.90;;;;;;5054951;28;20037;-72
2022/01/30 01:00:17;;;;;;;38.00;6.25;;;6.30;99.90;;;;;;5047225;28;20483;-71
2022/01/30 01:02:46;;;;;;;41.38;7.35;;;6.30;99.90;;;;;;5048183;28;20025;-73
2022/01/30 01:05:12;;;;;;;35.13;6.60;;;6.30;99.90;;;;;;5048193;28;20441;-73
2022/01/30 01:07:43;;;;;;;45.60;8.02;;;6.40;99.90;;;;;;5047750;28;20048;-72
2022/01/30 01:10:16;;;;;;;32.13;5.43;;;6.30;99.90;;;;;;5046907;28;20090;-72
2022/01/30 01:23:32;;;;;;;37.00;5.78;;;5.80;99.90;;;;;;5048159;28;20501;-72
2022/01/30 01:25:59;;;;;;;29.02;4.65;;;5.80;99.90;;;;;;5049805;28;20021;-71
2022/01/30 01:28:26;;;;;;;34.28;5.20;;;5.90;99.90;;;;;;5030154;28;20032;-72
2022/01/30 01:30:53;;;;;;;34.60;6.45;;;5.90;99.90;;;;;;5048176;28;20102;-71
2022/01/30 01:33:20;;;;;;;44.85;6.35;;;6.00;99.90;;;;;;5052558;28;20036;-72
2022/01/30 01:35:46;;;;;;;48.25;6.07;;;6.00;99.90;;;;;;5047358;28;20058;-72
2022/01/30 01:38:14;;;;;;;34.90;5.68;;;6.10;99.90;;;;;;5050721;28;20033;-71
2022/01/30 01:40:49;;;;;;;35.25;4.38;;;6.20;99.90;;;;;;5047149;28;20083;-72
2022/01/30 01:43:15;;;;;;;38.50;6.25;;;6.20;99.90;;;;;;5049514;28;20036;-72
2022/01/30 01:45:41;;;;;;;32.08;5.25;;;6.10;99.90;;;;;;5048731;28;20456;-71
2022/01/30 01:48:12;;;;;;;37.17;5.63;;;6.20;99.90;;;;;;5050717;28;20025;-72
2022/01/30 01:50:39;;;;;;;38.28;6.30;;;6.20;99.90;;;;;;5049276;28;20037;-70
2022/01/30 01:53:10;;;;;;;40.50;5.65;;;6.20;99.90;;;;;;5050232;28;20032;-70
2022/01/30 01:55:37;;;;;;;26.27;5.30;;;6.30;99.90;;;;;;5049393;28;20025;-72
2022/01/30 01:58:04;;;;;;;31.63;5.20;;;6.30;99.90;;;;;;5032838;28;20074;-72
2022/01/30 02:00:31;;;;;;;30.63;5.68;;;6.20;99.90;;;;;;5048070;28;20031;-72
2022/01/30 02:02:56;;;;;;;38.22;5.97;;;6.30;99.90;;;;;;5048779;28;20028;-73
2022/01/30 02:05:26;;;;;;;36.95;6.05;;;6.20;99.90;;;;;;5029983;28;20025;-72
2022/01/30 02:08:24;;;;;;;39.95;6.32;;;6.30;99.90;;;;;;5047424;28;20028;-72
2022/01/30 02:25:23;;;;;;;36.25;6.07;;;6.10;99.90;;;;;;5049035;28;20025;-72
2022/01/30 02:27:48;;;;;;;;;;;6.00;99.90;;;;;;5047924;28;20025;-73
2022/01/30 02:30:20;;;;;;;42.25;6.63;;;6.00;99.90;;;;;;5045557;28;20271;-71
2022/01/30 02:32:47;;;;;;;37.63;6.50;;;6.00;99.90;;;;;;5048067;28;20028;-71
2022/01/30 02:35:13;;;;;;;33.72;6.18;;;6.00;99.90;;;;;;5047246;28;20029;-71
2022/01/30 02:37:39;;;;;;;38.40;6.97;;;6.00;99.90;;;;;;5030886;28;20444;-72
2022/01/30 02:40:09;;;;;;;42.13;7.55;;;6.10;99.90;;;;;;5047255;28;20032;-72
2022/01/30 02:42:38;;;;;;;31.33;5.32;;;6.10;99.90;;;;;;5046742;28;20026;-72
2022/01/30 02:45:09;;;;;;;33.85;6.50;;;6.10;99.90;;;;;;5043512;28;20029;-72
2022/01/30 02:52:40;;;;;;;38.53;6.13;;;6.00;99.90;;;;;;5044000;28;20100;-71
2022/01/30 02:55:08;;;;;;;31.92;4.60;;;6.00;99.90;;;;;;5048745;28;20028;-71
2022/01/30 02:57:34;;;;;;;28.17;5.70;;;6.10;99.90;;;;;;5044883;28;20025;-72
2022/01/30 03:00:00;;;;;;;25.35;4.60;;;6.00;99.90;;;;;;5027086;28;20533;-72
2022/01/30 03:02:25;;;;;;;31.25;5.18;;;6.00;99.90;;;;;;5048029;28;20029;-71
2022/01/30 03:04:51;;;;;;;36.90;5.95;;;6.00;99.90;;;;;;5049155;28;20031;-71
2022/01/30 03:07:17;;;;;;;32.13;5.32;;;6.10;99.90;;;;;;5049664;28;20396;-71
2022/01/30 03:09:42;;;;;;;45.15;6.40;;;6.10;99.90;;;;;;5049591;28;20425;-71
2022/01/30 03:12:09;;;;;;;39.13;6.38;;;6.10;99.90;;;;;;5048011;28;20593;-71
2022/01/30 03:14:34;;;;;;;30.08;6.40;;;6.10;99.90;;;;;;5048693;28;20025;-71
2022/01/30 03:17:01;;;;;;;35.60;7.00;;;6.10;99.90;;;;;;5047110;28;20036;-70
2022/01/30 03:19:26;;;;;;;32.40;5.00;;;6.20;99.90;;;;;;5048285;28;20107;-70
2022/01/30 03:21:52;;;;;;;30.02;5.25;;;6.20;99.90;;;;;;5048251;28;20108;-70
2022/01/30 03:24:18;;;;;;;32.97;5.55;;;6.20;99.90;;;;;;5048505;28;20029;-70
2022/01/30 03:26:44;;;;;;;31.58;4.95;;;6.20;99.90;;;;;;5051598;28;20483;-71
2022/01/30 03:29:10;;;;;;;34.63;5.63;;;6.10;99.90;;;;;;5049973;28;20025;-71
2022/01/30 03:31:38;;;;;;;41.00;7.47;;;6.20;99.90;;;;;;5048637;28;20061;-70
2022/01/30 03:34:06;;;;;;;35.65;5.18;;;6.10;99.90;;;;;;5047674;28;20490;-71
2022/01/30 03:36:32;;;;;;;31.27;5.25;;;6.10;99.90;;;;;;5048936;28;20394;-71
2022/01/30 03:38:58;;;;;;;33.22;5.45;;;6.10;99.90;;;;;;5050743;28;20037;-71
2022/01/30 03:41:27;;;;;;;36.08;5.68;;;6.10;99.90;;;;;;5046931;28;20029;-71
2022/01/30 03:43:53;;;;;;;45.35;7.20;;;6.00;99.90;;;;;;5032003;28;20494;-71
2022/01/30 03:46:21;;;;;;;36.33;6.15;;;6.10;99.90;;;;;;5048083;28;20029;-71
2022/01/30 03:48:47;;;;;;;38.45;6.75;;;6.10;99.90;;;;;;5047371;28;20025;-71
2022/01/30 03:51:13;;;;;;;40.55;6.88;;;6.20;99.90;;;;;;5045494;28;20830;-72
2022/01/30 03:53:39;;;;;;;38.05;7.38;;;6.20;99.90;;;;;;5044898;28;20029;-71
2022/01/30 03:56:05;;;;;;;33.35;5.45;;;6.20;99.90;;;;;;5033083;28;20494;-71
2022/01/30 03:58:33;;;;;;;31.13;6.07;;;6.20;99.90;;;;;;5046828;28;20053;-71
2022/01/30 04:00:58;;;;;;;33.22;5.60;;;6.10;99.90;;;;;;5044186;28;20025;-71
2022/01/30 04:03:24;;;;;;;28.73;5.45;;;6.10;99.90;;;;;;5048443;28;20032;-72
2022/01/30 04:05:50;;;;;;;31.33;5.60;;;6.10;99.90;;;;;;5030648;28;20024;-71
2022/01/30 04:08:16;;;;;;;30.98;4.40;;;6.00;99.90;;;;;;5049859;28;20095;-71
2022/01/30 04:10:43;;;;;;;27.92;5.75;;;6.00;99.90;;;;;;5045200;28;20056;-71
2022/01/30 04:13:09;;;;;;;25.23;4.38;;;6.00;99.90;;;;;;5010641;28;20578;-71
2022/01/30 04:15:35;;;;;;;38.78;6.30;;;6.00;99.90;;;;;;5047162;28;20964;-71
2022/01/30 04:18:02;;;;;;;39.38;6.50;;;6.00;99.90;;;;;;5047313;28;20461;-70
2022/01/30 04:20:29;;;;;;;34.83;6.00;;;6.00;99.90;;;;;;5045326;28;20095;-71
2022/01/30 04:22:54;;;;;;;27.13;4.55;;;6.00;99.90;;;;;;5047047;28;20028;-71
2022/01/30 04:25:21;;;;;;;32.03;5.38;;;6.00;99.90;;;;;;5047215;28;21026;-71
2022/01/30 04:27:47;;;;;;;40.92;5.80;;;6.00;99.90;;;;;;5049140;28;20029;-70
2022/01/30 04:30:13;;;;;;;37.03;6.25;;;6.10;99.90;;;;;;5044925;28;20025;-70
2022/01/30 04:32:42;;;;;;;38.25;6.32;;;6.10;99.90;;;;;;5048591;28;20548;-70
2022/01/30 04:35:18;;;;;;;31.13;4.82;;;6.10;99.90;;;;;;5045271;28;20029;-71
2022/01/30 04:38:33;;;;;;;34.75;6.00;;;6.10;99.90;;;;;;5030170;28;20025;-71
2022/01/30 04:41:00;;;;;;;33.78;5.78;;;6.20;99.90;;;;;;5036899;28;20108;-71
2022/01/30 04:57:19;;;;;;;26.75;5.65;;;6.30;99.90;;;;;;5027512;28;20182;-72
2022/01/30 04:59:53;;;;;;;36.33;5.93;;;6.40;99.90;;;;;;5054742;28;20245;-71
2022/01/30 05:05:10;;;;;;;36.97;7.03;;;6.40;99.90;;;;;;5052417;28;20021;-71
2022/01/30 05:07:38;;;;;;;32.65;7.25;;;6.30;99.90;;;;;;5050884;28;20371;-71
2022/01/30 05:10:05;;;;;;;42.95;6.78;;;6.30;99.90;;;;;;5050732;28;20050;-71
2022/01/30 05:12:38;;;;;;;35.10;5.80;;;6.30;99.90;;;;;;5051042;28;20066;-72
2022/01/30 05:15:05;;;;;;;32.95;6.40;;;6.30;99.90;;;;;;5051409;28;20036;-71
2022/01/30 05:17:32;;;;;;;44.72;7.88;;;6.30;99.90;;;;;;5046412;28;20092;-71
2022/01/30 05:19:58;;;;;;;32.88;6.15;;;6.40;99.90;;;;;;5052695;28;20024;-71
2022/01/30 05:22:24;;;;;;;40.10;6.43;;;6.30;99.90;;;;;;5049754;28;20037;-71
2022/01/30 05:24:50;;;;;;;37.50;5.80;;;6.30;99.90;;;;;;5048214;28;20025;-72
2022/01/30 05:27:19;;;;;;;30.48;7.30;;;6.40;99.90;;;;;;5053347;28;20755;-71
2022/01/30 05:29:45;;;;;;;45.08;7.03;;;6.30;99.90;;;;;;5047608;28;20445;-71
2022/01/30 05:32:11;;;;;;;38.33;6.72;;;6.30;99.90;;;;;;5049369;28;20113;-72
2022/01/30 05:34:37;;;;;;;36.42;5.70;;;6.40;99.90;;;;;;5047978;28;20052;-71
2022/01/30 05:37:04;;;;;;;35.25;6.75;;;6.30;99.90;;;;;;5051475;28;20052;-71
2022/01/30 05:39:30;;;;;;;32.72;6.15;;;6.30;99.90;;;;;;5047135;28;20029;-71
2022/01/30 05:41:57;;;;;;;36.17;6.25;;;6.30;99.90;;;;;;5035855;28;20379;-71
2022/01/30 05:44:32;;;;;;;25.60;5.88;;;6.20;99.90;;;;;;5055316;28;20029;-71
2022/01/30 05:47:01;;;;;;;34.88;5.82;;;6.20;99.90;;;;;;5051591;28;20025;-73
2022/01/30 05:49:29;;;;;;;33.88;5.88;;;6.20;99.90;;;;;;5047541;28;20112;-71
2022/01/30 05:51:54;;;;;;;36.10;5.47;;;6.20;99.90;;;;;;5051524;28;20453;-71
2022/01/30 05:54:20;;;;;;;28.65;5.70;;;6.20;99.90;;;;;;5048685;28;20056;-71
2022/01/30 05:56:46;;;;;;;38.42;6.88;;;6.20;99.90;;;;;;5015894;28;20478;-71
2022/01/30 05:59:11;;;;;;;41.08;5.50;;;6.10;99.90;;;;;;5049746;28;20040;-71
2022/01/30 06:01:37;;;;;;;33.80;5.05;;;6.10;99.90;;;;;;5050017;28;20051;-71
2022/01/30 06:04:03;;;;;;;48.17;7.88;;;6.10;99.90;;;;;;5049327;28;20040;-71
2022/01/30 06:06:28;;;;;;;40.03;7.00;;;6.10;99.90;;;;;;5051198;28;20036;-71
2022/01/30 06:09:01;;;;;;;40.28;6.95;;;6.10;99.90;;;;;;5030882;28;20037;-70
2022/01/30 06:11:27;;;;;;;32.78;5.43;;;6.00;99.90;;;;;;5049724;28;20060;-71
2022/01/30 06:13:52;;;;;;;34.22;5.63;;;6.00;99.90;;;;;;5047033;28;20643;-72
2022/01/30 06:16:18;;;;;;;35.95;6.68;;;6.00;99.90;;;;;;5032052;28;20028;-70
2022/01/30 06:18:44;;;;;;;37.35;6.53;;;6.00;99.90;;;;;;5050807;28;21020;-70
2022/01/30 06:21:10;;;;;;;42.28;5.88;;;6.00;99.90;;;;;;5031509;28;20138;-72
2022/01/30 06:23:36;;;;;;;33.97;6.35;;;6.00;99.90;;;;;;5029562;28;20036;-72
2022/01/30 06:26:03;;;;;;;33.35;5.38;;;5.90;99.90;;;;;;5047725;28;20039;-72
2022/01/30 06:28:29;;;;;;;33.30;6.28;;;6.00;99.90;;;;;;5050002;28;20079;-71
2022/01/30 06:30:54;;;;;;;27.60;5.40;;;5.90;99.90;;;;;;5050347;28;20048;-71
2022/01/30 06:33:20;;;;;;;32.38;6.38;;;5.90;99.90;;;;;;5048972;28;20418;-71
2022/01/30 06:35:46;;;;;;;48.20;7.63;;;5.90;99.90;;;;;;5048144;28;20056;-71
2022/01/30 06:38:12;;;;;;;44.10;6.63;;;5.80;99.90;;;;;;5029490;28;20041;-71
2022/01/30 06:40:38;;;;;;;51.15;8.02;;;5.80;99.90;;;;;;5047206;28;20033;-71
2022/01/30 06:43:03;;;;;;;41.70;7.05;;;5.80;99.90;;;;;;5032147;28;20032;-72
2022/01/30 06:45:29;;;;;;;46.80;6.45;;;5.90;99.90;;;;;;5048167;28;20124;-71
2022/01/30 06:47:55;;;;;;;37.83;6.97;;;5.90;99.90;;;;;;5028256;28;20029;-72
2022/01/30 06:50:24;;;;;;;36.30;7.47;;;5.90;99.90;;;;;;5050551;28;20213;-72
2022/01/30 06:52:49;;;;;;;40.63;6.35;;;6.00;99.90;;;;;;5030137;28;20128;-71
2022/01/30 06:55:15;;;;;;;37.33;8.73;;;6.00;99.90;;;;;;5029968;28;20067;-72
2022/01/30 06:57:45;;;;;;;32.88;6.28;;;6.00;99.90;;;;;;5048440;28;20371;-71
2022/01/30 07:00:12;;;;;;;39.33;7.30;;;6.00;99.90;;;;;;5044325;28;20509;-71
2022/01/30 07:02:38;;;;;;;30.52;5.95;;;6.10;99.90;;;;;;5044441;28;20284;-71
2022/01/30 07:05:04;;;;;;;39.75;5.78;;;6.20;99.90;;;;;;5048311;28;20029;-71
2022/01/30 07:07:30;;;;;;;34.67;5.45;;;6.10;99.90;;;;;;5030785;28;20029;-70
2022/01/30 07:09:56;;;;;;;36.92;5.75;;;6.00;99.90;;;;;;5046424;28;20028;-70
2022/01/30 07:12:21;;;;;;;33.30;5.55;;;6.00;99.90;;;;;;5051661;28;20025;-71
2022/01/30 07:14:47;;;;;;;26.70;5.28;;;6.00;99.90;;;;;;5050296;28;20029;-72
2022/01/30 07:17:13;;;;;;;32.25;5.53;;;5.90;99.90;;;;;;5048760;28;20024;-71
2022/01/30 07:19:39;;;;;;;42.70;7.80;;;6.00;99.90;;;;;;5047360;28;20410;-72
2022/01/30 07:22:04;;;;;;;28.23;5.05;;;5.90;99.90;;;;;;5049015;28;20024;-71
2022/01/30 07:24:30;;;;;;;44.20;6.47;;;5.90;99.90;;;;;;5047063;28;20684;-72
2022/01/30 07:26:56;;;;;;;39.10;6.65;;;5.90;99.90;;;;;;5048875;28;20025;-72
2022/01/30 07:29:22;;;;;;;47.53;7.43;;;5.80;99.90;;;;;;5048350;28;20545;-71
2022/01/30 07:31:47;;;;;;;48.30;8.43;;;5.80;99.90;;;;;;5048675;28;20036;-73
2022/01/30 07:34:13;;;;;;;49.33;8.05;;;5.80;99.90;;;;;;5045266;28;20029;-74
2022/01/30 07:36:41;;;;;;;46.45;7.55;;;5.80;99.90;;;;;;5049075;28;20025;-72
2022/01/30 07:39:09;;;;;;;42.42;7.53;;;5.80;99.90;;;;;;5048649;28;20036;-73
2022/01/30 07:41:34;;;;;;;37.75;6.55;;;5.90;99.90;;;;;;5046246;28;20043;-73
2022/01/30 07:44:02;;;;;;;39.97;7.28;;;5.90;99.90;;;;;;5047500;28;20029;-71
2022/01/30 07:46:28;;;;;;;47.75;7.72;;;6.00;99.90;;;;;;5048412;28;20025;-72
2022/01/30 07:48:54;;;;;;;41.97;7.57;;;6.00;99.90;;;;;;5047636;28;20103;-73
2022/01/30 07:51:20;;;;;;;42.90;7.07;;;6.10;99.90;;;;;;5029989;28;20072;-72
2022/01/30 07:53:49;;;;;;;40.80;6.85;;;6.10;99.90;;;;;;5030019;28;20052;-73
2022/01/30 07:56:14;;;;;;;49.60;6.85;;;6.20;99.90;;;;;;5048099;28;20144;-73
2022/01/30 07:58:40;;;;;;;42.53;6.90;;;6.20;99.90;;;;;;5038063;28;20060;-71
2022/01/30 08:01:06;;;;;;;37.20;7.45;;;6.20;99.90;;;;;;5048072;28;20033;-72
2022/01/30 08:03:32;;;;;;;44.13;6.40;;;6.20;99.90;;;;;;5049995;28;20029;-72
2022/01/30 08:05:57;;;;;;;37.85;7.13;;;6.20;99.90;;;;;;5051219;28;20029;-71
2022/01/30 08:08:23;;;;;;;37.55;6.60;;;6.30;99.90;;;;;;5048438;28;20146;-71
2022/01/30 08:10:49;;;;;;;46.80;7.07;;;6.20;99.90;;;;;;5030958;28;20029;-73
2022/01/30 08:13:16;;;;;;;50.60;7.78;;;6.30;99.90;;;;;;5031549;28;20029;-72
2022/01/30 08:15:43;;;;;;;36.13;7.25;;;6.30;99.90;;;;;;5027887;28;20032;-72
2022/01/30 08:18:09;;;;;;;39.60;7.55;;;6.30;99.90;;;;;;5043359;28;20487;-72
2022/01/30 08:20:36;;;;;;;42.88;6.50;;;6.30;99.90;;;;;;5008739;28;20040;-72
2022/01/30 08:23:10;;;;;;;47.20;8.30;;;6.30;99.90;;;;;;5044466;28;20021;-72
2022/01/30 08:25:36;;;;;;;37.47;6.53;;;6.30;99.90;;;;;;5024356;28;20037;-72
2022/01/30 08:28:05;;;;;;;39.00;7.03;;;6.30;99.90;;;;;;5044935;28;20058;-72
2022/01/30 08:30:31;;;;;;;35.47;5.93;;;6.40;99.90;;;;;;5040299;28;20075;-72
2022/01/30 08:32:58;;;;;;;34.17;7.13;;;6.40;99.90;;;;;;5023629;28;20110;-72
2022/01/30 08:35:24;;;;;;;37.95;6.07;;;6.40;99.90;;;;;;5044858;28;20020;-72
2022/01/30 08:37:50;;;;;;;37.63;6.50;;;6.40;99.90;;;;;;5046491;28;20037;-73
2022/01/30 08:40:19;;;;;;;41.45;7.15;;;6.40;99.90;;;;;;5045059;28;20029;-71
2022/01/30 08:42:47;;;;;;;31.70;6.22;;;6.50;99.90;;;;;;5046848;28;20029;-72
2022/01/30 08:45:14;;;;;;;39.08;6.80;;;6.40;99.90;;;;;;5045657;28;20041;-71
2022/01/30 08:47:41;;;;;;;32.38;5.60;;;6.40;99.70;;;;;;5048127;28;20029;-70
2022/01/30 08:50:08;;;;;;;35.38;6.32;;;6.40;99.90;;;;;;5043958;28;20029;-71
2022/01/30 08:52:34;;;;;;;32.47;6.13;;;6.40;99.90;;;;;;5046267;28;20029;-71
2022/01/30 08:55:01;;;;;;;27.88;6.20;;;6.40;99.90;;;;;;5049678;28;20516;-71
2022/01/30 08:57:27;;;;;;;39.22;6.43;;;6.40;99.30;;;;;;5048249;28;20055;-71
2022/01/30 08:59:54;;;;;;;42.25;6.57;;;6.40;98.70;;;;;;5046568;28;20051;-71
2022/01/30 09:02:19;;;;;;;34.92;6.32;;;6.40;98.50;;;;;;5047612;28;20440;-72
2022/01/30 09:04:45;;;;;;;27.33;5.30;;;6.40;99.80;;;;;;5048140;28;20029;-71
2022/01/30 09:07:11;;;;;;;32.17;6.05;;;6.40;99.10;;;;;;5049891;28;20071;-71
2022/01/30 09:09:37;;;;;;;39.63;6.40;;;6.40;99.20;;;;;;5054425;28;20029;-71
2022/01/30 09:12:03;;;;;;;33.15;5.82;;;6.40;99.20;;;;;;5048386;28;20124;-69
2022/01/30 09:14:29;;;;;;;46.53;6.35;;;6.50;99.80;;;;;;5026676;28;20454;-70
2022/01/30 09:16:55;;;;;;;37.55;6.10;;;6.50;98.60;;;;;;5046801;28;20231;-72
2022/01/30 09:19:21;;;;;;;33.50;5.35;;;6.50;99.40;;;;;;5048732;28;20399;-70
2022/01/30 09:21:48;;;;;;;46.83;6.95;;;6.50;99.40;;;;;;5047306;28;20048;-71
2022/01/30 09:24:14;;;;;;;43.88;7.38;;;6.50;99.90;;;;;;5050291;28;20546;-71
2022/01/30 09:26:40;;;;;;;44.10;7.75;;;6.50;99.90;;;;;;5049167;28;20057;-71
2022/01/30 09:29:29;;;;;;;36.85;6.43;;;6.50;99.90;;;;;;5051253;28;20068;-74
2022/01/30 09:31:57;;;;;;;31.30;6.50;;;6.50;99.90;;;;;;5035698;28;20048;-71
2022/01/30 09:34:23;;;;;;;33.95;5.95;;;6.50;99.90;;;;;;5044983;28;20407;-72
2022/01/30 09:36:48;;;;;;;41.80;6.72;;;6.50;99.90;;;;;;5048927;28;20025;-72
2022/01/30 09:39:14;;;;;;;31.63;6.05;;;6.60;99.90;;;;;;5047056;28;20033;-72
2022/01/30 09:41:42;;;;;;;42.28;6.75;;;6.60;99.90;;;;;;5048176;28;20025;-71
2022/01/30 09:44:09;;;;;;;49.47;8.00;;;6.70;99.90;;;;;;5026661;28;20037;-71
2022/01/30 09:46:39;;;;;;;44.00;7.07;;;6.70;99.90;;;;;;5046256;28;20394;-72
2022/01/30 09:49:06;;;;;;;34.75;6.70;;;6.70;99.90;;;;;;5047369;28;20403;-71
2022/01/30 09:51:34;;;;;;;40.83;7.32;;;6.70;99.90;;;;;;5052079;28;20033;-70
2022/01/30 09:54:00;;;;;;;35.85;6.32;;;6.70;99.90;;;;;;5048173;28;20514;-71
2022/01/30 09:56:26;;;;;;;50.75;8.55;;;6.70;99.90;;;;;;5045084;28;20585;-71
2022/01/30 09:58:52;;;;;;;47.10;7.43;;;6.70;99.80;;;;;;5049051;28;20092;-72
2022/01/30 10:01:18;;;;;;;36.60;5.47;;;6.70;99.50;;;;;;5047002;28;20049;-73
2022/01/30 10:03:47;;;;;;;39.47;6.97;;;6.80;99.70;;;;;;5060944;28;20509;-72
2022/01/30 10:06:18;;;;;;;34.80;6.25;;;6.70;99.60;;;;;;5048955;28;20111;-72
2022/01/30 10:08:46;;;;;;;41.70;7.00;;;6.70;99.90;;;;;;5028376;28;20104;-72
2022/01/30 10:11:30;;;;;;;35.03;6.82;;;6.70;99.90;;;;;;5046944;28;20447;-71
2022/01/30 10:14:10;;;;;;;37.42;6.53;;;6.70;99.90;;;;;;5044646;28;20025;-72
2022/01/30 10:16:46;;;;;;;42.33;7.20;;;6.80;99.60;;;;;;5046391;28;20108;-71
2022/01/30 10:19:17;;;;;;;37.30;7.20;;;6.80;99.60;;;;;;5038923;28;20390;-71
2022/01/30 10:21:43;;;;;;;;;;;6.80;99.90;;;;;;5044582;28;20025;-72
2022/01/30 10:24:27;;;;;;;35.28;7.18;;;6.80;99.90;;;;;;5046030;28;20252;-71
2022/01/30 10:26:57;;;;;;;32.30;6.40;;;6.80;99.90;;;;;;5046916;28;20100;-71
2022/01/30 10:29:33;;;;;;;34.25;8.05;;;6.80;99.90;;;;;;5044030;28;20484;-73
2022/01/30 10:32:06;;;;;;;38.70;6.97;;;6.80;99.90;;;;;;5042958;28;20048;-72
2022/01/30 10:34:33;;;;;;;53.05;8.27;;;6.80;99.90;;;;;;5046194;28;20033;-72
2022/01/30 10:37:23;;;;;;;37.03;6.43;;;6.90;99.80;;;;;;5028769;28;20434;-72
2022/01/30 10:39:52;;;;;;;42.90;6.95;;;6.90;99.90;;;;;;5047408;28;20367;-72
2022/01/30 10:42:39;;;;;;;40.38;7.40;;;6.90;99.90;;;;;;5045682;28;20046;-70
2022/01/30 10:45:18;;;;;;;42.28;6.75;;;7.00;99.40;;;;;;5047637;28;20113;-71
2022/01/30 10:47:45;;;;;;;37.88;7.05;;;7.00;98.60;;;;;;5029688;28;20029;-73
2022/01/30 10:50:21;;;;;;;26.35;5.70;;;7.10;98.40;;;;;;5045045;28;20369;-70
2022/01/30 10:52:47;;;;;;;33.60;6.28;;;7.10;98.30;;;;;;5046605;28;20056;-72
2022/01/30 10:55:13;;;;;;;38.70;6.80;;;7.10;98.70;;;;;;5047547;28;20052;-71
2022/01/30 10:57:40;;;;;;;33.65;6.88;;;7.10;98.40;;;;;;5045442;28;20824;-71
2022/01/30 11:00:07;;;;;;;46.67;7.15;;;7.10;98.80;;;;;;5047927;28;20029;-72
2022/01/30 11:02:38;;;;;;;35.72;6.60;;;7.20;98.60;;;;;;5043080;28;20363;-71
2022/01/30 11:05:11;;;;;;;39.63;7.35;;;7.20;99.20;;;;;;5022686;28;20036;-72
2022/01/30 11:07:37;;;;;;;41.28;8.55;;;7.20;99.10;;;;;;5047843;28;20024;-73
2022/01/30 11:10:18;;;;;;;37.90;6.05;;;7.20;99.10;;;;;;5045970;28;20029;-71
2022/01/30 11:12:56;;;;;;;34.55;6.28;;;7.20;98.90;;;;;;5028210;28;20017;-73
2022/01/30 11:15:35;;;;;;;43.30;6.53;;;7.20;98.40;;;;;;5047861;28;20076;-73
2022/01/30 11:18:03;;;;;;;33.05;7.45;;;7.30;97.50;;;;;;5028790;28;20033;-73
2022/01/30 11:20:33;;;;;;;33.63;6.47;;;7.30;97.50;;;;;;5026915;28;20032;-74
2022/01/30 11:23:03;;;;;;;38.10;6.10;;;7.20;97.20;;;;;;5039603;28;20025;-74
2022/01/30 11:25:33;;;;;;;33.80;6.43;;;7.30;97.70;;;;;;5045330;28;20021;-73
2022/01/30 11:28:04;;;;;;;40.85;7.95;;;7.30;97.70;;;;;;5044677;28;20451;-73
2022/01/30 11:30:32;;;;;;;35.13;7.07;;;7.30;97.30;;;;;;5045285;28;20095;-73
2022/01/30 11:32:58;;;;;;;33.95;6.07;;;7.30;97.40;;;;;;5045366;28;20025;-72
2022/01/30 11:35:24;;;;;;;34.80;8.02;;;7.30;98.20;;;;;;5047669;28;20025;-74
2022/01/30 11:37:50;;;;;;;44.90;7.47;;;7.40;97.60;;;;;;5043683;28;20025;-73
2022/01/30 11:40:18;;;;;;;32.97;5.72;;;7.40;97.70;;;;;;5045583;28;20029;-72
2022/01/30 11:42:49;;;;;;;38.30;7.80;;;7.40;97.20;;;;;;5046398;28;20025;-74
2022/01/30 11:45:21;;;;;;;33.47;6.10;;;7.30;97.40;;;;;;5050940;28;20154;-73
2022/01/30 11:47:58;;;;;;;35.05;5.80;;;7.30;97.30;;;;;;5047352;28;20074;-73
2022/01/30 11:50:30;;;;;;;38.42;6.75;;;7.40;95.50;;;;;;5046869;28;20025;-74
2022/01/30 11:53:07;;;;;;;34.63;5.70;;;7.40;95.40;;;;;;5047942;28;20029;-74
2022/01/30 11:55:48;;;;;;;38.00;6.32;;;7.50;94.90;;;;;;5048856;28;20029;-73
2022/01/30 11:58:32;;;;;;;;;;;7.40;95.00;;;;;;5042161;28;20048;-73
2022/01/30 12:01:17;;;;;;;31.13;5.88;;;7.40;95.20;;;;;;5046618;28;19920;-74
2022/01/30 12:04:09;;;;;;;35.13;6.47;;;7.30;96.40;;;;;;5051204;28;20044;-74
2022/01/30 12:06:41;;;;;;;26.50;5.40;;;7.30;96.30;;;;;;5029171;28;20033;-72
2022/01/30 12:09:19;;;;;;;23.80;4.95;;;7.30;96.70;;;;;;5049899;28;20033;-75
2022/01/30 12:11:57;;;;;;;32.05;5.53;;;7.30;97.30;;;;;;5051750;28;20043;-76
2022/01/30 12:14:22;;;;;;;40.80;5.45;;;7.30;96.30;;;;;;5050175;28;20087;-75
2022/01/30 12:16:49;;;;;;;30.10;5.85;;;7.30;96.30;;;;;;5050038;28;20021;-76
2022/01/30 12:19:42;;;;;;;40.97;7.22;;;7.30;96.30;;;;;;5053609;28;20096;-72
2022/01/30 12:22:17;;;;;;;31.00;6.15;;;7.30;97.00;;;;;;5040910;28;20044;-72
2022/01/30 12:24:48;;;;;;;25.67;5.72;;;7.30;97.50;;;;;;5053100;28;20033;-73
2022/01/30 12:27:14;;;;;;;;;;;7.40;96.80;;;;;;5051375;28;20027;-71
2022/01/30 12:29:50;;;;;;;27.60;4.68;;;7.30;97.50;;;;;;5054919;28;19987;-72
2022/01/30 12:32:22;;;;;;;25.42;5.38;;;7.40;97.50;;;;;;5033493;28;20690;-73
2022/01/30 12:34:57;;;;;;;35.38;7.00;;;7.30;98.10;;;;;;5052721;28;20021;-73
2022/01/30 12:37:24;;;;;;;31.88;6.03;;;7.40;98.50;;;;;;5050512;28;20529;-73
2022/01/30 12:39:50;;;;;;;35.53;6.30;;;7.40;98.40;;;;;;5054064;28;20025;-72
2022/01/30 12:42:17;;;;;;;34.05;6.32;;;7.30;98.60;;;;;;5052471;28;20052;-75
2022/01/30 12:44:44;;;;;;;36.00;6.53;;;7.30;98.30;;;;;;5053951;28;20064;-73
2022/01/30 12:47:10;;;;;;;29.73;5.50;;;7.20;97.80;;;;;;5053167;28;20033;-71
2022/01/30 12:49:43;;;;;;;33.80;5.70;;;7.20;98.00;;;;;;5053170;28;20352;-73
2022/01/30 12:52:29;;;;;;;25.95;4.82;;;7.10;98.60;;;;;;5039041;28;20047;-70
2022/01/30 12:54:57;;;;;;;35.25;6.75;;;7.10;98.60;;;;;;5053726;28;20029;-74
2022/01/30 12:57:25;;;;;;;32.42;5.22;;;7.10;98.70;;;;;;5052025;28;20036;-74
2022/01/30 12:59:53;;;;;;;37.05;6.35;;;7.10;98.00;;;;;;5032753;28;20039;-71
2022/01/30 13:02:19;;;;;;;34.20;6.30;;;7.00;98.60;;;;;;5053932;28;20033;-71
2022/01/30 13:04:46;;;;;;;37.20;6.22;;;7.00;99.50;;;;;;5050355;28;20040;-72
2022/01/30 13:07:13;;;;;;;31.27;5.65;;;7.00;99.60;;;;;;5049075;28;20029;-72
2022/01/30 13:09:39;;;;;;;28.73;5.70;;;7.00;99.90;;;;;;5047025;28;20049;-72
2022/01/30 13:12:16;;;;;;;34.63;6.15;;;7.00;99.70;;;;;;5053033;28;20443;-72
2022/01/30 13:14:42;;;;;;;41.67;7.00;;;7.00;99.60;;;;;;5031936;28;20033;-73
2022/01/30 13:17:10;;;;;;;30.15;6.03;;;6.90;99.10;;;;;;5053287;28;20037;-73
2022/01/30 13:19:39;;;;;;;32.22;5.00;;;7.00;98.90;;;;;;5031444;28;20106;-71
2022/01/30 13:22:08;;;;;;;36.55;5.97;;;6.90;99.10;;;;;;5051530;28;20053;-72
2022/01/30 13:24:34;;;;;;;28.63;5.72;;;7.00;98.30;;;;;;5052225;28;20056;-73
2022/01/30 13:27:08;;;;;;;22.45;4.82;;;7.00;98.10;;;;;;5051891;28;20075;-72
2022/01/30 13:29:35;;;;;;;23.08;4.75;;;7.10;97.90;;;;;;5031815;28;20025;-72
2022/01/30 13:32:10;;;;;;;27.88;4.97;;;7.00;96.50;;;;;;5050830;28;20441;-71
2022/01/30 13:35:03;;;;;;;31.95;5.13;;;7.00;97.30;;;;;;5032398;28;20560;-71
2022/01/30 13:37:36;;;;;;;26.40;4.40;;;7.00;95.50;;;;;;5032362;28;20029;-71
2022/01/30 13:40:24;;;;;;;25.23;3.50;;;7.00;94.70;;;;;;5050723;28;20435;-72
2022/01/30 13:42:56;;;;;;;23.23;3.90;;;7.00;94.80;;;;;;5049928;28;20033;-72
2022/01/30 13:48:15;;;;;;;27.23;4.18;;;6.90;94.50;;;;;;5048840;28;20021;-71
2022/01/30 13:50:52;;;;;;;23.58;3.55;;;6.90;92.80;;;;;;5060672;28;20487;-70